RJNF(METAR)
12/04 16:00
RJNF 040700Z 35005KT 9999 SCT025 BKN035 11/07 Q1023 RMK A3021=
戻る
トップページへ戻る
IMOC Co,.Ltd.